sensor_id;sensor_type;location;lat;lon;timestamp;temperature;humidity
76857;DHT22;69705;44.686;37.628;2023-07-16T00:01:18;19.53;88.51
76857;DHT22;69705;44.686;37.628;2023-07-16T00:03:45;19.52;88.71
76857;DHT22;69705;44.686;37.628;2023-07-16T00:06:11;19.50;88.99
76857;DHT22;69705;44.686;37.628;2023-07-16T00:08:38;19.48;89.04
76857;DHT22;69705;44.686;37.628;2023-07-16T00:11:04;19.50;89.02
76857;DHT22;69705;44.686;37.628;2023-07-16T00:13:31;19.48;89.37
76857;DHT22;69705;44.686;37.628;2023-07-16T00:15:57;19.47;89.11
76857;DHT22;69705;44.686;37.628;2023-07-16T00:18:24;19.44;88.99
76857;DHT22;69705;44.686;37.628;2023-07-16T00:20:51;19.43;88.92
76857;DHT22;69705;44.686;37.628;2023-07-16T00:23:18;19.41;89.23
76857;DHT22;69705;44.686;37.628;2023-07-16T00:25:44;19.42;89.26
76857;DHT22;69705;44.686;37.628;2023-07-16T00:28:11;19.42;89.42
76857;DHT22;69705;44.686;37.628;2023-07-16T00:30:38;19.40;89.78
76857;DHT22;69705;44.686;37.628;2023-07-16T00:33:07;19.41;89.57
76857;DHT22;69705;44.686;37.628;2023-07-16T00:35:34;19.41;90.04
76857;DHT22;69705;44.686;37.628;2023-07-16T00:38:01;19.39;90.10
76857;DHT22;69705;44.686;37.628;2023-07-16T00:40:27;19.42;90.09
76857;DHT22;69705;44.686;37.628;2023-07-16T00:42:54;19.44;89.93
76857;DHT22;69705;44.686;37.628;2023-07-16T00:45:20;19.46;90.08
76857;DHT22;69705;44.686;37.628;2023-07-16T00:47:47;19.46;89.70
76857;DHT22;69705;44.686;37.628;2023-07-16T00:50:14;19.50;90.63
76857;DHT22;69705;44.686;37.628;2023-07-16T00:52:40;19.56;90.84
76857;DHT22;69705;44.686;37.628;2023-07-16T00:55:08;19.62;90.79
76857;DHT22;69705;44.686;37.628;2023-07-16T00:57:35;19.62;90.44
76857;DHT22;69705;44.686;37.628;2023-07-16T01:00:03;19.63;90.86
76857;DHT22;69705;44.686;37.628;2023-07-16T01:02:30;19.65;91.21
76857;DHT22;69705;44.686;37.628;2023-07-16T01:04:57;19.68;90.30
76857;DHT22;69705;44.686;37.628;2023-07-16T01:07:25;19.66;90.41
76857;DHT22;69705;44.686;37.628;2023-07-16T01:09:55;19.66;90.37
76857;DHT22;69705;44.686;37.628;2023-07-16T01:12:22;19.66;90.41
76857;DHT22;69705;44.686;37.628;2023-07-16T01:14:51;19.65;90.04
76857;DHT22;69705;44.686;37.628;2023-07-16T01:17:20;19.62;90.05
76857;DHT22;69705;44.686;37.628;2023-07-16T01:19:47;19.59;90.11
76857;DHT22;69705;44.686;37.628;2023-07-16T01:30:39;19.58;90.39
76857;DHT22;69705;44.686;37.628;2023-07-16T01:33:08;19.60;90.57
76857;DHT22;69705;44.686;37.628;2023-07-16T01:35:37;19.60;90.80
76857;DHT22;69705;44.686;37.628;2023-07-16T01:38:06;19.61;90.83
76857;DHT22;69705;44.686;37.628;2023-07-16T01:40:32;19.62;90.85
76857;DHT22;69705;44.686;37.628;2023-07-16T01:43:01;19.67;90.64
76857;DHT22;69705;44.686;37.628;2023-07-16T01:45:28;19.69;90.45
76857;DHT22;69705;44.686;37.628;2023-07-16T01:48:30;19.67;90.88
76857;DHT22;69705;44.686;37.628;2023-07-16T01:50:57;19.70;90.73
76857;DHT22;69705;44.686;37.628;2023-07-16T01:53:23;19.72;90.98
76857;DHT22;69705;44.686;37.628;2023-07-16T01:55:50;19.71;91.25
76857;DHT22;69705;44.686;37.628;2023-07-16T01:58:16;19.73;90.73
76857;DHT22;69705;44.686;37.628;2023-07-16T02:00:43;19.73;90.76
76857;DHT22;69705;44.686;37.628;2023-07-16T02:03:09;19.76;90.72
76857;DHT22;69705;44.686;37.628;2023-07-16T02:05:36;19.77;91.00
76857;DHT22;69705;44.686;37.628;2023-07-16T02:08:03;19.79;90.97
76857;DHT22;69705;44.686;37.628;2023-07-16T02:10:32;19.79;91.15
76857;DHT22;69705;44.686;37.628;2023-07-16T02:12:59;19.80;90.85
76857;DHT22;69705;44.686;37.628;2023-07-16T02:15:25;19.77;91.10
76857;DHT22;69705;44.686;37.628;2023-07-16T02:17:52;19.83;90.89
76857;DHT22;69705;44.686;37.628;2023-07-16T02:20:19;19.84;90.63
76857;DHT22;69705;44.686;37.628;2023-07-16T02:22:46;19.80;90.77
76857;DHT22;69705;44.686;37.628;2023-07-16T02:25:12;19.80;90.74
76857;DHT22;69705;44.686;37.628;2023-07-16T02:27:39;19.77;91.06
76857;DHT22;69705;44.686;37.628;2023-07-16T02:30:06;19.81;90.83
76857;DHT22;69705;44.686;37.628;2023-07-16T02:32:33;19.81;90.65
76857;DHT22;69705;44.686;37.628;2023-07-16T02:35:01;19.79;90.71
76857;DHT22;69705;44.686;37.628;2023-07-16T02:37:31;19.79;90.60
76857;DHT22;69705;44.686;37.628;2023-07-16T02:39:58;19.76;90.94
76857;DHT22;69705;44.686;37.628;2023-07-16T02:42:24;19.75;90.86
76857;DHT22;69705;44.686;37.628;2023-07-16T02:44:51;19.80;90.89
76857;DHT22;69705;44.686;37.628;2023-07-16T02:47:18;19.82;90.79
76857;DHT22;69705;44.686;37.628;2023-07-16T02:49:44;19.82;91.12
76857;DHT22;69705;44.686;37.628;2023-07-16T02:52:11;19.86;90.84
76857;DHT22;69705;44.686;37.628;2023-07-16T02:54:37;19.86;91.05
76857;DHT22;69705;44.686;37.628;2023-07-16T02:57:05;19.88;90.86
76857;DHT22;69705;44.686;37.628;2023-07-16T02:59:31;19.90;90.97
76857;DHT22;69705;44.686;37.628;2023-07-16T03:01:58;19.92;90.69
76857;DHT22;69705;44.686;37.628;2023-07-16T03:04:24;19.91;90.64
76857;DHT22;69705;44.686;37.628;2023-07-16T03:06:52;19.94;90.92
76857;DHT22;69705;44.686;37.628;2023-07-16T03:09:18;19.98;90.91
76857;DHT22;69705;44.686;37.628;2023-07-16T03:11:45;19.99;91.58
76857;DHT22;69705;44.686;37.628;2023-07-16T03:14:11;20.04;91.43
76857;DHT22;69705;44.686;37.628;2023-07-16T03:16:38;20.11;91.47
76857;DHT22;69705;44.686;37.628;2023-07-16T03:19:05;20.18;91.58
76857;DHT22;69705;44.686;37.628;2023-07-16T03:21:32;20.26;91.56
76857;DHT22;69705;44.686;37.628;2023-07-16T03:23:58;20.32;91.79
76857;DHT22;69705;44.686;37.628;2023-07-16T03:26:25;20.36;91.55
76857;DHT22;69705;44.686;37.628;2023-07-16T03:28:51;20.47;91.08
76857;DHT22;69705;44.686;37.628;2023-07-16T03:31:18;20.59;90.79
76857;DHT22;69705;44.686;37.628;2023-07-16T03:33:46;20.63;90.96
76857;DHT22;69705;44.686;37.628;2023-07-16T03:36:13;20.72;90.98
76857;DHT22;69705;44.686;37.628;2023-07-16T03:38:41;20.78;91.15
76857;DHT22;69705;44.686;37.628;2023-07-16T03:41:08;20.83;91.46
76857;DHT22;69705;44.686;37.628;2023-07-16T03:43:35;20.93;90.90
76857;DHT22;69705;44.686;37.628;2023-07-16T03:46:15;21.02;90.91
76857;DHT22;69705;44.686;37.628;2023-07-16T03:48:42;21.11;90.59
76857;DHT22;69705;44.686;37.628;2023-07-16T03:51:08;21.19;90.40
76857;DHT22;69705;44.686;37.628;2023-07-16T03:53:35;21.30;90.40
76857;DHT22;69705;44.686;37.628;2023-07-16T03:56:01;21.37;90.45
76857;DHT22;69705;44.686;37.628;2023-07-16T03:58:28;21.48;90.80
76857;DHT22;69705;44.686;37.628;2023-07-16T04:00:55;21.54;90.13
76857;DHT22;69705;44.686;37.628;2023-07-16T04:03:23;21.63;90.86
76857;DHT22;69705;44.686;37.628;2023-07-16T04:05:50;21.74;90.26
76857;DHT22;69705;44.686;37.628;2023-07-16T04:08:17;21.81;90.62
76857;DHT22;69705;44.686;37.628;2023-07-16T04:10:43;21.92;89.78
76857;DHT22;69705;44.686;37.628;2023-07-16T04:13:09;22.06;90.61
76857;DHT22;69705;44.686;37.628;2023-07-16T04:15:36;22.17;89.87
76857;DHT22;69705;44.686;37.628;2023-07-16T04:18:02;22.29;89.49
76857;DHT22;69705;44.686;37.628;2023-07-16T04:20:30;22.40;89.51
76857;DHT22;69705;44.686;37.628;2023-07-16T04:22:57;22.51;88.98
76857;DHT22;69705;44.686;37.628;2023-07-16T04:25:23;22.61;88.97
76857;DHT22;69705;44.686;37.628;2023-07-16T04:27:50;22.70;88.54
76857;DHT22;69705;44.686;37.628;2023-07-16T04:30:16;22.84;86.99
76857;DHT22;69705;44.686;37.628;2023-07-16T04:32:43;22.99;86.31
76857;DHT22;69705;44.686;37.628;2023-07-16T04:35:09;23.09;86.61
76857;DHT22;69705;44.686;37.628;2023-07-16T04:37:36;23.20;86.27
76857;DHT22;69705;44.686;37.628;2023-07-16T04:40:02;23.29;85.47
76857;DHT22;69705;44.686;37.628;2023-07-16T04:42:30;23.39;85.58
76857;DHT22;69705;44.686;37.628;2023-07-16T04:44:57;23.46;83.26
76857;DHT22;69705;44.686;37.628;2023-07-16T04:47:23;23.50;82.34
76857;DHT22;69705;44.686;37.628;2023-07-16T04:49:49;23.56;81.97
76857;DHT22;69705;44.686;37.628;2023-07-16T04:52:16;23.62;80.55
76857;DHT22;69705;44.686;37.628;2023-07-16T04:54:42;23.65;80.17
76857;DHT22;69705;44.686;37.628;2023-07-16T04:57:09;23.72;79.51
76857;DHT22;69705;44.686;37.628;2023-07-16T04:59:35;23.82;80.92
76857;DHT22;69705;44.686;37.628;2023-07-16T05:02:05;23.89;79.94
76857;DHT22;69705;44.686;37.628;2023-07-16T05:04:32;23.98;76.90
76857;DHT22;69705;44.686;37.628;2023-07-16T05:06:58;24.06;77.09
76857;DHT22;69705;44.686;37.628;2023-07-16T05:09:25;24.15;78.29
76857;DHT22;69705;44.686;37.628;2023-07-16T05:11:51;24.25;75.28
76857;DHT22;69705;44.686;37.628;2023-07-16T05:14:18;24.35;74.89
76857;DHT22;69705;44.686;37.628;2023-07-16T05:16:44;24.50;73.30
76857;DHT22;69705;44.686;37.628;2023-07-16T05:19:11;24.57;72.82
76857;DHT22;69705;44.686;37.628;2023-07-16T05:21:37;24.68;71.81
76857;DHT22;69705;44.686;37.628;2023-07-16T05:24:04;24.77;72.03
76857;DHT22;69705;44.686;37.628;2023-07-16T05:26:31;24.82;70.43
76857;DHT22;69705;44.686;37.628;2023-07-16T05:28:59;24.94;68.16
76857;DHT22;69705;44.686;37.628;2023-07-16T05:31:25;25.00;71.46
76857;DHT22;69705;44.686;37.628;2023-07-16T05:33:52;25.05;71.05
76857;DHT22;69705;44.686;37.628;2023-07-16T05:36:18;25.14;70.10
76857;DHT22;69705;44.686;37.628;2023-07-16T05:38:45;25.18;67.39
76857;DHT22;69705;44.686;37.628;2023-07-16T05:41:12;25.27;68.48
76857;DHT22;69705;44.686;37.628;2023-07-16T05:43:38;25.37;68.33
76857;DHT22;69705;44.686;37.628;2023-07-16T05:46:05;25.50;67.55
76857;DHT22;69705;44.686;37.628;2023-07-16T05:48:31;25.59;70.27
76857;DHT22;69705;44.686;37.628;2023-07-16T05:50:58;25.66;67.69
76857;DHT22;69705;44.686;37.628;2023-07-16T05:53:24;25.71;68.92
76857;DHT22;69705;44.686;37.628;2023-07-16T05:55:51;25.78;69.01
76857;DHT22;69705;44.686;37.628;2023-07-16T05:58:18;25.83;65.59
76857;DHT22;69705;44.686;37.628;2023-07-16T06:00:44;25.92;61.47
76857;DHT22;69705;44.686;37.628;2023-07-16T06:03:11;26.05;59.27
76857;DHT22;69705;44.686;37.628;2023-07-16T06:05:37;26.11;58.99
76857;DHT22;69705;44.686;37.628;2023-07-16T06:08:04;26.17;57.40
76857;DHT22;69705;44.686;37.628;2023-07-16T06:10:34;26.20;58.70
76857;DHT22;69705;44.686;37.628;2023-07-16T06:13:00;26.20;59.03
76857;DHT22;69705;44.686;37.628;2023-07-16T06:15:27;26.23;55.69
76857;DHT22;69705;44.686;37.628;2023-07-16T06:17:53;26.30;53.75
76857;DHT22;69705;44.686;37.628;2023-07-16T06:20:20;26.35;54.66
76857;DHT22;69705;44.686;37.628;2023-07-16T06:22:47;26.42;55.85
76857;DHT22;69705;44.686;37.628;2023-07-16T06:25:13;26.50;57.26
76857;DHT22;69705;44.686;37.628;2023-07-16T06:27:40;26.52;56.39
76857;DHT22;69705;44.686;37.628;2023-07-16T06:30:06;26.60;55.24
76857;DHT22;69705;44.686;37.628;2023-07-16T06:32:33;26.63;55.72
76857;DHT22;69705;44.686;37.628;2023-07-16T06:35:00;26.68;57.08
76857;DHT22;69705;44.686;37.628;2023-07-16T06:37:26;26.73;53.56
76857;DHT22;69705;44.686;37.628;2023-07-16T06:39:52;26.78;54.47
76857;DHT22;69705;44.686;37.628;2023-07-16T06:42:19;26.85;54.71
76857;DHT22;69705;44.686;37.628;2023-07-16T06:44:46;26.92;51.18
76857;DHT22;69705;44.686;37.628;2023-07-16T06:47:13;26.98;50.74
76857;DHT22;69705;44.686;37.628;2023-07-16T06:49:39;27.08;52.40
76857;DHT22;69705;44.686;37.628;2023-07-16T06:52:06;27.22;53.07
76857;DHT22;69705;44.686;37.628;2023-07-16T06:54:33;27.34;53.60
76857;DHT22;69705;44.686;37.628;2023-07-16T06:56:59;27.46;52.53
76857;DHT22;69705;44.686;37.628;2023-07-16T06:59:26;27.50;53.23
76857;DHT22;69705;44.686;37.628;2023-07-16T07:01:52;27.37;48.59
76857;DHT22;69705;44.686;37.628;2023-07-16T07:04:18;27.35;53.78
76857;DHT22;69705;44.686;37.628;2023-07-16T07:06:45;27.32;52.34
76857;DHT22;69705;44.686;37.628;2023-07-16T07:09:11;27.20;55.68
76857;DHT22;69705;44.686;37.628;2023-07-16T07:11:38;27.07;56.32
76857;DHT22;69705;44.686;37.628;2023-07-16T07:14:04;27.00;57.35
76857;DHT22;69705;44.686;37.628;2023-07-16T07:16:31;26.92;53.79
76857;DHT22;69705;44.686;37.628;2023-07-16T07:18:58;26.90;59.05
76857;DHT22;69705;44.686;37.628;2023-07-16T07:21:25;27.02;61.36
76857;DHT22;69705;44.686;37.628;2023-07-16T07:23:51;27.15;50.79
76857;DHT22;69705;44.686;37.628;2023-07-16T07:26:18;27.12;52.13
76857;DHT22;69705;44.686;37.628;2023-07-16T07:28:44;27.05;59.51
76857;DHT22;69705;44.686;37.628;2023-07-16T07:31:11;26.97;56.87
76857;DHT22;69705;44.686;37.628;2023-07-16T07:33:38;26.87;54.49
76857;DHT22;69705;44.686;37.628;2023-07-16T07:36:04;26.75;53.52
76857;DHT22;69705;44.686;37.628;2023-07-16T07:38:31;26.65;58.63
76857;DHT22;69705;44.686;37.628;2023-07-16T07:40:57;26.50;59.53
76857;DHT22;69705;44.686;37.628;2023-07-16T07:43:24;26.46;56.12
76857;DHT22;69705;44.686;37.628;2023-07-16T07:45:50;26.43;55.05
76857;DHT22;69705;44.686;37.628;2023-07-16T07:48:17;26.66;58.72
76857;DHT22;69705;44.686;37.628;2023-07-16T07:50:43;26.96;55.79
76857;DHT22;69705;44.686;37.628;2023-07-16T07:53:12;27.11;56.46
76857;DHT22;69705;44.686;37.628;2023-07-16T07:55:40;27.20;57.18
76857;DHT22;69705;44.686;37.628;2023-07-16T07:58:08;27.28;56.59
76857;DHT22;69705;44.686;37.628;2023-07-16T08:00:34;27.23;53.97
76857;DHT22;69705;44.686;37.628;2023-07-16T08:03:01;27.25;56.99
76857;DHT22;69705;44.686;37.628;2023-07-16T08:05:28;27.15;56.60
76857;DHT22;69705;44.686;37.628;2023-07-16T08:07:54;27.10;57.99
76857;DHT22;69705;44.686;37.628;2023-07-16T08:10:22;26.98;59.35
76857;DHT22;69705;44.686;37.628;2023-07-16T08:12:48;26.86;57.55
76857;DHT22;69705;44.686;37.628;2023-07-16T08:15:15;26.79;60.20
76857;DHT22;69705;44.686;37.628;2023-07-16T08:17:42;26.61;59.33
76857;DHT22;69705;44.686;37.628;2023-07-16T08:20:10;26.57;60.34
76857;DHT22;69705;44.686;37.628;2023-07-16T08:22:38;26.48;60.37
76857;DHT22;69705;44.686;37.628;2023-07-16T08:25:06;26.42;61.63
76857;DHT22;69705;44.686;37.628;2023-07-16T08:27:33;26.33;63.95
76857;DHT22;69705;44.686;37.628;2023-07-16T08:30:00;26.34;64.13
76857;DHT22;69705;44.686;37.628;2023-07-16T08:32:26;26.31;62.43
76857;DHT22;69705;44.686;37.628;2023-07-16T08:34:53;26.54;63.32
76857;DHT22;69705;44.686;37.628;2023-07-16T08:37:20;26.90;63.68
76857;DHT22;69705;44.686;37.628;2023-07-16T08:39:46;27.14;55.43
76857;DHT22;69705;44.686;37.628;2023-07-16T08:42:13;27.15;53.85
76857;DHT22;69705;44.686;37.628;2023-07-16T08:44:40;27.15;55.84
76857;DHT22;69705;44.686;37.628;2023-07-16T08:47:07;27.12;59.47
76857;DHT22;69705;44.686;37.628;2023-07-16T08:49:34;27.02;60.53
76857;DHT22;69705;44.686;37.628;2023-07-16T08:52:01;26.89;64.76
76857;DHT22;69705;44.686;37.628;2023-07-16T08:54:28;26.73;61.75
76857;DHT22;69705;44.686;37.628;2023-07-16T08:56:55;26.71;64.14
76857;DHT22;69705;44.686;37.628;2023-07-16T08:59:23;27.13;61.06
76857;DHT22;69705;44.686;37.628;2023-07-16T09:01:50;27.66;57.80
76857;DHT22;69705;44.686;37.628;2023-07-16T09:04:17;27.89;58.60
76857;DHT22;69705;44.686;37.628;2023-07-16T09:06:43;27.84;58.82
76857;DHT22;69705;44.686;37.628;2023-07-16T09:09:21;28.01;59.51
76857;DHT22;69705;44.686;37.628;2023-07-16T09:11:48;27.88;49.99
76857;DHT22;69705;44.686;37.628;2023-07-16T09:14:19;27.78;52.78
76857;DHT22;69705;44.686;37.628;2023-07-16T09:16:49;27.97;54.04
76857;DHT22;69705;44.686;37.628;2023-07-16T09:19:17;28.24;50.11
76857;DHT22;69705;44.686;37.628;2023-07-16T09:21:49;28.32;50.85
76857;DHT22;69705;44.686;37.628;2023-07-16T09:24:16;28.28;47.98
76857;DHT22;69705;44.686;37.628;2023-07-16T09:26:53;28.14;55.63
76857;DHT22;69705;44.686;37.628;2023-07-16T09:29:21;28.06;56.01
76857;DHT22;69705;44.686;37.628;2023-07-16T09:31:55;27.90;57.00
76857;DHT22;69705;44.686;37.628;2023-07-16T09:34:22;27.81;52.66
76857;DHT22;69705;44.686;37.628;2023-07-16T09:36:49;27.81;52.04
76857;DHT22;69705;44.686;37.628;2023-07-16T09:39:17;28.17;46.55
76857;DHT22;69705;44.686;37.628;2023-07-16T09:41:49;28.56;43.59
76857;DHT22;69705;44.686;37.628;2023-07-16T09:44:16;29.01;47.06
76857;DHT22;69705;44.686;37.628;2023-07-16T09:46:44;29.42;44.60
76857;DHT22;69705;44.686;37.628;2023-07-16T09:49:11;29.71;43.66
76857;DHT22;69705;44.686;37.628;2023-07-16T09:51:38;30.00;45.67
76857;DHT22;69705;44.686;37.628;2023-07-16T09:54:06;30.25;44.89
76857;DHT22;69705;44.686;37.628;2023-07-16T09:56:39;30.54;44.88
76857;DHT22;69705;44.686;37.628;2023-07-16T09:59:13;30.59;42.00
76857;DHT22;69705;44.686;37.628;2023-07-16T10:01:40;30.64;44.93
76857;DHT22;69705;44.686;37.628;2023-07-16T10:04:14;30.81;39.49
76857;DHT22;69705;44.686;37.628;2023-07-16T10:07:03;30.95;39.78
76857;DHT22;69705;44.686;37.628;2023-07-16T10:09:41;31.01;38.78
76857;DHT22;69705;44.686;37.628;2023-07-16T10:14:42;31.01;39.21
76857;DHT22;69705;44.686;37.628;2023-07-16T10:17:16;31.14;41.93
76857;DHT22;69705;44.686;37.628;2023-07-16T10:19:54;31.22;42.44
76857;DHT22;69705;44.686;37.628;2023-07-16T10:22:32;31.37;40.41
76857;DHT22;69705;44.686;37.628;2023-07-16T10:24:59;31.35;39.17
76857;DHT22;69705;44.686;37.628;2023-07-16T10:27:31;31.35;40.62
76857;DHT22;69705;44.686;37.628;2023-07-16T10:30:00;31.42;41.11
76857;DHT22;69705;44.686;37.628;2023-07-16T10:32:32;31.48;39.11
76857;DHT22;69705;44.686;37.628;2023-07-16T10:34:59;31.57;40.25
76857;DHT22;69705;44.686;37.628;2023-07-16T10:37:27;31.61;39.98
76857;DHT22;69705;44.686;37.628;2023-07-16T10:39:56;31.68;38.28
76857;DHT22;69705;44.686;37.628;2023-07-16T10:42:24;31.70;37.75
76857;DHT22;69705;44.686;37.628;2023-07-16T10:44:53;31.18;40.52
76857;DHT22;69705;44.686;37.628;2023-07-16T10:47:23;30.69;39.11
76857;DHT22;69705;44.686;37.628;2023-07-16T10:49:51;30.19;40.33
76857;DHT22;69705;44.686;37.628;2023-07-16T10:52:22;29.75;42.71
76857;DHT22;69705;44.686;37.628;2023-07-16T10:54:49;29.48;43.19
76857;DHT22;69705;44.686;37.628;2023-07-16T10:57:17;29.36;41.97
76857;DHT22;69705;44.686;37.628;2023-07-16T10:59:45;29.32;42.47
76857;DHT22;69705;44.686;37.628;2023-07-16T11:02:13;29.41;41.63
76857;DHT22;69705;44.686;37.628;2023-07-16T11:04:40;29.72;43.96
76857;DHT22;69705;44.686;37.628;2023-07-16T11:07:12;30.11;40.71
76857;DHT22;69705;44.686;37.628;2023-07-16T11:09:43;30.05;42.68
76857;DHT22;69705;44.686;37.628;2023-07-16T11:12:14;30.30;38.31
76857;DHT22;69705;44.686;37.628;2023-07-16T11:14:49;30.30;38.04
76857;DHT22;69705;44.686;37.628;2023-07-16T11:17:16;30.51;35.87
76857;DHT22;69705;44.686;37.628;2023-07-16T11:19:48;30.41;37.69
76857;DHT22;69705;44.686;37.628;2023-07-16T11:22:15;30.41;35.73
76857;DHT22;69705;44.686;37.628;2023-07-16T11:24:45;30.34;36.30
76857;DHT22;69705;44.686;37.628;2023-07-16T11:27:23;30.52;37.05
76857;DHT22;69705;44.686;37.628;2023-07-16T11:29:56;30.90;39.13
76857;DHT22;69705;44.686;37.628;2023-07-16T11:34:56;31.30;37.69
76857;DHT22;69705;44.686;37.628;2023-07-16T11:37:28;31.18;36.34
76857;DHT22;69705;44.686;37.628;2023-07-16T11:40:03;31.25;36.72
76857;DHT22;69705;44.686;37.628;2023-07-16T11:44:58;31.57;36.75
76857;DHT22;69705;44.686;37.628;2023-07-16T11:47:26;31.51;35.85
76857;DHT22;69705;44.686;37.628;2023-07-16T11:49:53;31.52;35.73
76857;DHT22;69705;44.686;37.628;2023-07-16T11:52:21;31.43;36.54
76857;DHT22;69705;44.686;37.628;2023-07-16T11:54:49;31.40;36.78
76857;DHT22;69705;44.686;37.628;2023-07-16T11:57:16;31.40;36.05
76857;DHT22;69705;44.686;37.628;2023-07-16T11:59:42;31.46;36.05
76857;DHT22;69705;44.686;37.628;2023-07-16T12:02:09;31.51;35.78
76857;DHT22;69705;44.686;37.628;2023-07-16T12:04:35;31.53;37.64
76857;DHT22;69705;44.686;37.628;2023-07-16T12:07:02;31.55;36.61
76857;DHT22;69705;44.686;37.628;2023-07-16T12:09:28;31.54;36.82
76857;DHT22;69705;44.686;37.628;2023-07-16T12:11:57;31.53;37.00
76857;DHT22;69705;44.686;37.628;2023-07-16T12:14:23;31.63;37.14
76857;DHT22;69705;44.686;37.628;2023-07-16T12:16:50;31.56;38.39
76857;DHT22;69705;44.686;37.628;2023-07-16T12:19:17;31.51;38.63
76857;DHT22;69705;44.686;37.628;2023-07-16T12:21:43;31.49;38.37
76857;DHT22;69705;44.686;37.628;2023-07-16T12:24:11;31.53;39.37
76857;DHT22;69705;44.686;37.628;2023-07-16T12:26:37;31.50;37.45
76857;DHT22;69705;44.686;37.628;2023-07-16T12:29:04;31.57;34.63
76857;DHT22;69705;44.686;37.628;2023-07-16T12:31:31;31.34;37.38
76857;DHT22;69705;44.686;37.628;2023-07-16T12:34:01;31.41;36.43
76857;DHT22;69705;44.686;37.628;2023-07-16T12:36:30;31.48;38.59
76857;DHT22;69705;44.686;37.628;2023-07-16T12:38:57;31.40;36.24
76857;DHT22;69705;44.686;37.628;2023-07-16T12:41:23;31.52;39.30
76857;DHT22;69705;44.686;37.628;2023-07-16T12:43:50;31.31;36.37
76857;DHT22;69705;44.686;37.628;2023-07-16T12:46:17;31.12;37.05
76857;DHT22;69705;44.686;37.628;2023-07-16T12:48:43;31.18;36.21
76857;DHT22;69705;44.686;37.628;2023-07-16T12:51:10;31.05;37.03
76857;DHT22;69705;44.686;37.628;2023-07-16T12:53:36;31.12;38.14
76857;DHT22;69705;44.686;37.628;2023-07-16T12:56:03;31.29;37.94
76857;DHT22;69705;44.686;37.628;2023-07-16T12:58:30;31.26;36.50
76857;DHT22;69705;44.686;37.628;2023-07-16T13:00:56;31.33;36.81
76857;DHT22;69705;44.686;37.628;2023-07-16T13:03:23;31.21;34.76
76857;DHT22;69705;44.686;37.628;2023-07-16T13:05:49;31.20;37.54
76857;DHT22;69705;44.686;37.628;2023-07-16T13:08:16;31.07;37.45
76857;DHT22;69705;44.686;37.628;2023-07-16T13:10:42;31.02;36.39
76857;DHT22;69705;44.686;37.628;2023-07-16T13:13:08;30.97;37.91
76857;DHT22;69705;44.686;37.628;2023-07-16T13:15:35;30.98;39.34
76857;DHT22;69705;44.686;37.628;2023-07-16T13:18:02;30.84;38.17
76857;DHT22;69705;44.686;37.628;2023-07-16T13:20:29;30.80;38.76
76857;DHT22;69705;44.686;37.628;2023-07-16T13:23:00;30.87;39.16
76857;DHT22;69705;44.686;37.628;2023-07-16T13:25:27;30.92;38.11
76857;DHT22;69705;44.686;37.628;2023-07-16T13:27:56;30.93;38.77
76857;DHT22;69705;44.686;37.628;2023-07-16T13:30:23;30.78;39.14
76857;DHT22;69705;44.686;37.628;2023-07-16T13:32:49;30.80;38.01
76857;DHT22;69705;44.686;37.628;2023-07-16T13:35:16;30.84;39.48
76857;DHT22;69705;44.686;37.628;2023-07-16T13:37:42;30.95;39.86
76857;DHT22;69705;44.686;37.628;2023-07-16T13:40:09;30.83;38.82
76857;DHT22;69705;44.686;37.628;2023-07-16T13:42:36;30.67;38.14
76857;DHT22;69705;44.686;37.628;2023-07-16T13:45:03;30.76;38.65
76857;DHT22;69705;44.686;37.628;2023-07-16T13:47:30;30.71;36.78
76857;DHT22;69705;44.686;37.628;2023-07-16T13:49:56;30.61;37.59
76857;DHT22;69705;44.686;37.628;2023-07-16T13:52:23;30.53;37.73
76857;DHT22;69705;44.686;37.628;2023-07-16T13:54:49;30.33;36.20
76857;DHT22;69705;44.686;37.628;2023-07-16T13:57:16;30.47;36.12
76857;DHT22;69705;44.686;37.628;2023-07-16T13:59:43;30.32;36.17
76857;DHT22;69705;44.686;37.628;2023-07-16T14:02:09;30.16;32.42
76857;DHT22;69705;44.686;37.628;2023-07-16T14:04:36;30.10;34.21
76857;DHT22;69705;44.686;37.628;2023-07-16T14:07:03;30.06;35.98
76857;DHT22;69705;44.686;37.628;2023-07-16T14:09:29;30.07;36.79
76857;DHT22;69705;44.686;37.628;2023-07-16T14:11:56;29.93;35.89
76857;DHT22;69705;44.686;37.628;2023-07-16T14:14:22;29.85;37.39
76857;DHT22;69705;44.686;37.628;2023-07-16T14:16:49;29.85;37.68
76857;DHT22;69705;44.686;37.628;2023-07-16T14:19:16;29.79;37.65
76857;DHT22;69705;44.686;37.628;2023-07-16T14:21:43;29.79;37.80
76857;DHT22;69705;44.686;37.628;2023-07-16T14:24:09;29.71;38.34
76857;DHT22;69705;44.686;37.628;2023-07-16T14:26:36;29.51;37.18
76857;DHT22;69705;44.686;37.628;2023-07-16T14:29:02;29.43;39.66
76857;DHT22;69705;44.686;37.628;2023-07-16T14:31:29;29.32;38.37
76857;DHT22;69705;44.686;37.628;2023-07-16T14:33:56;29.22;38.98
76857;DHT22;69705;44.686;37.628;2023-07-16T14:36:22;29.13;37.73
76857;DHT22;69705;44.686;37.628;2023-07-16T14:38:49;29.02;38.99
76857;DHT22;69705;44.686;37.628;2023-07-16T14:41:15;28.86;38.76
76857;DHT22;69705;44.686;37.628;2023-07-16T14:43:42;28.77;38.89
76857;DHT22;69705;44.686;37.628;2023-07-16T14:46:09;28.64;39.33
76857;DHT22;69705;44.686;37.628;2023-07-16T14:48:44;28.52;39.46
76857;DHT22;69705;44.686;37.628;2023-07-16T14:51:11;28.54;40.25
76857;DHT22;69705;44.686;37.628;2023-07-16T14:53:38;28.47;40.81
76857;DHT22;69705;44.686;37.628;2023-07-16T14:56:05;28.50;42.65
76857;DHT22;69705;44.686;37.628;2023-07-16T14:58:33;28.40;42.42
76857;DHT22;69705;44.686;37.628;2023-07-16T15:01:01;28.33;41.85
76857;DHT22;69705;44.686;37.628;2023-07-16T15:03:29;28.19;41.97
76857;DHT22;69705;44.686;37.628;2023-07-16T15:05:57;28.11;41.86
76857;DHT22;69705;44.686;37.628;2023-07-16T15:08:24;27.96;41.71
76857;DHT22;69705;44.686;37.628;2023-07-16T15:10:59;27.83;43.20
76857;DHT22;69705;44.686;37.628;2023-07-16T15:13:25;27.69;42.49
76857;DHT22;69705;44.686;37.628;2023-07-16T15:15:57;27.60;42.01
76857;DHT22;69705;44.686;37.628;2023-07-16T15:18:25;27.50;42.74
76857;DHT22;69705;44.686;37.628;2023-07-16T15:21:01;27.32;43.58
76857;DHT22;69705;44.686;37.628;2023-07-16T15:23:28;27.19;44.09
76857;DHT22;69705;44.686;37.628;2023-07-16T15:26:01;27.11;44.07
76857;DHT22;69705;44.686;37.628;2023-07-16T15:28:28;27.08;45.05
76857;DHT22;69705;44.686;37.628;2023-07-16T15:31:01;26.97;45.35
76857;DHT22;69705;44.686;37.628;2023-07-16T15:33:27;26.93;44.41